createdAt,value
2018-09-14T00:00:42.360Z,608.87
2018-09-14T00:02:44.622Z,600.17
2018-09-14T00:04:46.907Z,608.33
2018-09-14T00:06:49.169Z,590.52
2018-09-14T00:08:51.467Z,594.75
2018-09-14T00:10:53.750Z,588.72
2018-09-14T00:12:56.008Z,575.70
2018-09-14T00:14:58.273Z,582.52
2018-09-14T00:17:00.561Z,573.97
2018-09-14T00:19:02.807Z,574.90
2018-09-14T00:21:05.103Z,571.05
2018-09-14T00:23:07.394Z,560.08
2018-09-14T00:25:09.679Z,564.02
2018-09-14T00:27:11.945Z,558.17
2018-09-14T00:29:14.259Z,553.48
2018-09-14T00:31:16.517Z,554.60
2018-09-14T00:33:18.743Z,555.75
2018-09-14T00:35:21.039Z,548.08
2018-09-14T00:37:23.788Z,550.15
2018-09-14T00:39:26.045Z,546.22
2018-09-14T00:41:28.330Z,537.70
2018-09-14T00:43:30.617Z,537.25
2018-09-14T00:45:32.919Z,528.23
2018-09-14T00:47:35.189Z,533.33
2018-09-14T00:49:37.431Z,536.28
2018-09-14T00:51:39.721Z,527.20
2018-09-14T00:53:41.978Z,518.73
2018-09-14T00:55:44.279Z,524.15
2018-09-14T00:57:46.570Z,520.60
2018-09-14T00:59:48.842Z,518.60
2018-09-14T01:01:51.124Z,513.92
2018-09-14T01:03:53.405Z,513.60
2018-09-14T01:05:55.663Z,502.17
2018-09-14T01:07:57.970Z,517.25
2018-09-14T01:10:00.218Z,500.92
2018-09-14T01:12:02.483Z,502.25
2018-09-14T01:14:04.783Z,499.58
2018-09-14T01:16:07.045Z,496.27
2018-09-14T01:18:09.301Z,496.75
2018-09-14T01:20:11.615Z,488.87
2018-09-14T01:22:14.447Z,481.73
2018-09-14T01:24:16.714Z,491.77
2018-09-14T01:26:18.975Z,484.15
2018-09-14T01:28:21.267Z,487.77
2018-09-14T01:30:23.523Z,480.87
2018-09-14T01:32:25.836Z,475.72
2018-09-14T01:34:28.082Z,467.93
2018-09-14T01:36:30.326Z,474.30
2018-09-14T01:38:32.638Z,467.15
2018-09-14T01:40:34.890Z,473.90
2018-09-14T01:42:37.164Z,469.82
2018-09-14T01:44:39.456Z,464.55
2018-09-14T01:46:41.742Z,461.75
2018-09-14T01:48:44.056Z,454.62
2018-09-14T01:50:46.318Z,452.73
2018-09-14T01:52:48.566Z,459.25
2018-09-14T01:54:50.872Z,449.85
2018-09-14T01:56:53.160Z,452.37
2018-09-14T01:58:55.423Z,450.07
2018-09-14T02:00:57.689Z,446.77
2018-09-14T02:02:59.974Z,445.10
2018-09-14T02:05:02.234Z,436.80
2018-09-14T02:07:04.534Z,439.05
2018-09-14T02:09:06.832Z,439.52
2018-09-14T02:11:09.114Z,433.60
2018-09-14T02:13:11.406Z,426.48
2018-09-14T02:15:13.690Z,433.83
2018-09-14T02:17:15.996Z,424.48
2018-09-14T02:19:18.251Z,422.77
2018-09-14T02:21:20.536Z,424.88
2018-09-14T02:23:22.840Z,418.93
2018-09-14T02:25:25.095Z,419.37
2018-09-14T02:27:27.348Z,420.62
2018-09-14T02:29:29.640Z,406.93
2018-09-14T02:31:31.912Z,405.50
2018-09-14T02:33:34.217Z,407.85
2018-09-14T02:35:36.476Z,403.10
2018-09-14T02:37:38.772Z,403.05
2018-09-14T02:39:41.060Z,400.42
2018-09-14T02:41:43.318Z,394.87
2018-09-14T02:43:45.606Z,393.05
2018-09-14T02:45:47.908Z,394.82
2018-09-14T02:47:50.156Z,383.55
2018-09-14T02:49:52.462Z,386.55
2018-09-14T02:51:54.770Z,385.48
2018-09-14T02:53:57.022Z,382.05
2018-09-14T02:55:59.308Z,379.40
2018-09-14T02:58:01.621Z,361.80
2018-09-14T03:00:03.884Z,374.52
2018-09-14T03:02:06.164Z,372.85
2018-09-14T03:04:08.448Z,359.90
2018-09-14T03:06:10.730Z,353.60
2018-09-14T03:08:12.982Z,368.07
2018-09-14T03:10:15.294Z,353.67
2018-09-14T03:12:17.596Z,352.22
2018-09-14T03:14:19.857Z,351.12
2018-09-14T03:16:22.148Z,352.07
2018-09-14T03:18:24.403Z,340.48
2018-09-14T03:20:26.704Z,340.92
2018-09-14T03:22:28.994Z,342.18
2018-09-14T03:24:31.253Z,341.65
2018-09-14T03:26:33.556Z,335.60
2018-09-14T03:28:35.823Z,329.68
2018-09-14T03:30:38.084Z,334.85
2018-09-14T03:32:40.368Z,330.48
2018-09-14T03:34:42.651Z,329.38
2018-09-14T03:36:44.924Z,328.10
2018-09-14T03:38:47.230Z,323.05
2018-09-14T03:40:49.514Z,324.12
2018-09-14T03:42:51.783Z,309.05
2018-09-14T03:44:54.067Z,313.68
2018-09-14T03:46:56.358Z,310.80
2018-09-14T03:48:58.651Z,309.12
2018-09-14T03:51:00.932Z,302.20
2018-09-14T03:53:03.198Z,301.60
2018-09-14T03:55:05.485Z,299.42
2018-09-14T03:57:07.777Z,298.25
2018-09-14T03:59:10.029Z,295.07
2018-09-14T04:01:12.315Z,294.93
2018-09-14T04:03:14.569Z,298.18
2018-09-14T04:05:16.820Z,290.15
2018-09-14T04:07:19.111Z,292.98
2018-09-14T04:09:21.439Z,280.35
2018-09-14T04:11:23.700Z,280.95
2018-09-14T04:13:25.993Z,285.93
2018-09-14T04:15:28.283Z,280.27
2018-09-14T04:17:30.586Z,276.12
2018-09-14T04:19:32.845Z,273.60
2018-09-14T04:21:35.129Z,267.13
2018-09-14T04:23:37.473Z,262.82
2018-09-14T04:25:39.735Z,264.63
2018-09-14T04:27:41.981Z,264.15
2018-09-14T04:29:44.243Z,265.15
2018-09-14T04:31:46.537Z,269.73
2018-09-14T04:33:48.797Z,258.70
2018-09-14T04:35:51.101Z,257.30
2018-09-14T04:37:53.360Z,254.65
2018-09-14T04:39:55.622Z,257.52
2018-09-14T04:41:57.918Z,250.60
2018-09-14T04:44:00.167Z,243.10
2018-09-14T04:46:02.440Z,242.57
2018-09-14T04:48:04.741Z,244.00
2018-09-14T04:50:06.993Z,242.70
2018-09-14T04:52:09.292Z,244.10
2018-09-14T04:54:11.549Z,236.72
2018-09-14T04:56:13.796Z,236.03
2018-09-14T04:58:16.081Z,235.78
2018-09-14T05:00:18.372Z,233.65
2018-09-14T05:02:20.659Z,226.95
2018-09-14T05:04:22.945Z,223.70
2018-09-14T05:06:25.200Z,227.93
2018-09-14T05:08:27.513Z,219.65
2018-09-14T05:10:29.805Z,219.68
2018-09-14T05:12:32.061Z,216.33
2018-09-14T05:14:34.358Z,216.17
2018-09-14T05:16:36.669Z,217.10
2018-09-14T05:18:38.931Z,210.78
2018-09-14T05:20:41.195Z,211.12
2018-09-14T05:22:43.493Z,215.45
2018-09-14T05:24:45.779Z,210.35
2018-09-14T05:26:48.080Z,212.42
2018-09-14T05:28:50.331Z,210.25
2018-09-14T05:30:52.643Z,211.68
2018-09-14T05:32:54.897Z,209.57
2018-09-14T05:34:57.155Z,207.72
2018-09-14T05:36:59.447Z,205.77
2018-09-14T05:39:01.747Z,204.45
2018-09-14T05:41:04.022Z,203.70
2018-09-14T05:43:06.307Z,194.65
2018-09-14T05:45:08.605Z,198.43
2018-09-14T05:47:10.901Z,192.05
2018-09-14T05:49:13.199Z,200.32
2018-09-14T05:51:15.456Z,187.68
2018-09-14T05:53:17.759Z,187.88
2018-09-14T05:55:20.049Z,192.77
2018-09-14T05:57:22.315Z,183.32
2018-09-14T05:59:24.611Z,180.42
2018-09-14T06:01:26.875Z,180.65
2018-09-14T06:03:29.160Z,185.10
2018-09-14T06:05:31.668Z,174.62
2018-09-14T06:07:33.911Z,179.68
2018-09-14T06:09:36.225Z,174.15
2018-09-14T06:11:38.468Z,184.43
2018-09-14T06:13:40.760Z,176.27
2018-09-14T06:15:43.033Z,171.00
2018-09-14T06:17:45.347Z,180.00
2018-09-14T06:19:47.592Z,186.45
2018-09-14T06:21:49.867Z,173.50
2018-09-14T06:23:52.169Z,172.98
2018-09-14T06:25:54.491Z,206.28
2018-09-14T06:27:56.808Z,361.98
2018-09-14T06:29:59.055Z,413.15
2018-09-14T06:32:01.358Z,388.30
2018-09-14T06:34:03.650Z,463.55
2018-09-14T06:36:05.977Z,459.05
2018-09-14T06:38:08.267Z,463.50
2018-09-14T06:40:10.517Z,447.00
2018-09-14T06:42:12.811Z,444.45
2018-09-14T06:44:15.107Z,442.65
2018-09-14T06:46:17.384Z,418.33
2018-09-14T06:48:19.691Z,412.72
2018-09-14T06:50:21.941Z,413.15
2018-09-14T06:52:24.201Z,389.80
2018-09-14T06:54:26.505Z,405.33
2018-09-14T06:56:28.787Z,463.30
2018-09-14T06:58:31.097Z,508.27
2018-09-14T07:00:33.473Z,549.77
2018-09-14T07:02:35.698Z,570.67
2018-09-14T07:04:38.005Z,641.65
2018-09-14T07:06:40.263Z,371.00
2018-09-14T07:08:42.518Z,319.13
2018-09-14T07:10:44.800Z,486.73
2018-09-14T07:12:47.074Z,531.40
2018-09-14T07:14:49.374Z,436.28
2018-09-14T07:16:51.638Z,456.23
2018-09-14T07:18:53.919Z,430.50
2018-09-14T07:20:56.158Z,529.95
2018-09-14T07:22:58.451Z,149.53
2018-09-14T07:25:00.739Z,79.60
2018-09-14T07:27:03.049Z,50.90
2018-09-14T07:29:05.297Z,85.97
2018-09-14T07:31:07.566Z,32.13
2018-09-14T07:33:09.829Z,9.13
2018-09-14T07:35:12.106Z,9.38
2018-09-14T07:37:14.404Z,6.62
2018-09-14T07:39:16.642Z,6.70
2018-09-14T07:41:18.924Z,22.75
2018-09-14T07:43:21.181Z,28.15
2018-09-14T07:45:23.482Z,15.08
2018-09-14T07:47:25.736Z,36.90
2018-09-14T07:49:28.043Z,80.50
2018-09-14T07:51:30.325Z,99.40
2018-09-14T07:53:32.616Z,52.98
2018-09-14T07:55:34.916Z,19.42
2018-09-14T07:57:37.177Z,15.10
2018-09-14T07:59:39.480Z,30.00
2018-09-14T08:01:41.720Z,65.17
2018-09-14T08:03:44.036Z,30.75
2018-09-14T08:05:46.348Z,16.37
2018-09-14T08:07:48.622Z,34.92
2018-09-14T08:09:50.915Z,93.00
2018-09-14T08:11:53.211Z,50.23
2018-09-14T08:13:55.467Z,20.50
2018-09-14T08:15:57.777Z,14.38
2018-09-14T08:18:00.021Z,14.30
2018-09-14T08:20:02.329Z,79.85
2018-09-14T08:22:04.708Z,76.33
2018-09-14T08:24:06.902Z,54.38
2018-09-14T08:26:09.216Z,46.95
2018-09-14T08:28:11.477Z,35.95
2018-09-14T08:30:14.099Z,16.23
2018-09-14T08:32:16.371Z,14.40
2018-09-14T08:34:18.684Z,10.38
2018-09-14T08:36:20.963Z,9.48
2018-09-14T08:38:23.224Z,87.35
2018-09-14T08:40:25.516Z,117.72
2018-09-14T08:42:27.808Z,76.50
2018-09-14T08:44:30.087Z,21.57
2018-09-14T08:46:32.382Z,18.90
2018-09-14T08:48:35.014Z,27.32
2018-09-14T08:50:37.286Z,33.85
2018-09-14T08:52:39.606Z,31.70
2018-09-14T08:54:41.846Z,46.95
2018-09-14T08:56:44.116Z,51.25
2018-09-14T08:58:46.397Z,46.58
2018-09-14T09:00:48.675Z,47.85
2018-09-14T09:02:51.279Z,45.98
2018-09-14T09:04:53.586Z,53.58
2018-09-14T09:06:55.850Z,46.70
2018-09-14T09:08:58.125Z,41.63
2018-09-14T09:11:00.377Z,42.75
2018-09-14T09:13:02.673Z,37.17
2018-09-14T09:15:04.970Z,34.53
2018-09-14T09:17:07.227Z,35.43
2018-09-14T09:19:09.547Z,38.02
2018-09-14T09:21:11.791Z,37.33
2018-09-14T09:23:14.075Z,34.67
2018-09-14T09:25:16.321Z,34.10
2018-09-14T09:27:18.595Z,28.65
2018-09-14T09:29:20.915Z,29.52
2018-09-14T09:31:23.165Z,25.88
2018-09-14T09:33:25.445Z,22.82
2018-09-14T09:35:27.735Z,21.37
2018-09-14T09:37:29.979Z,25.60
2018-09-14T09:39:32.269Z,22.65
2018-09-14T09:41:34.550Z,21.55
2018-09-14T09:43:36.981Z,17.95
2018-09-14T09:45:39.101Z,20.37
2018-09-14T09:47:41.414Z,8.73
2018-09-14T09:49:43.672Z,393.52
2018-09-14T09:51:45.966Z,404.53
2018-09-14T09:53:48.291Z,871.55
2018-09-14T09:55:50.573Z,192.90
2018-09-14T09:57:52.830Z,78.22
2018-09-14T09:59:55.132Z,49.08
2018-09-14T10:01:57.376Z,26.75
2018-09-14T10:03:59.697Z,18.20
2018-09-14T10:06:01.975Z,15.20
2018-09-14T10:08:04.222Z,15.95
2018-09-14T10:10:06.507Z,23.57
2018-09-14T10:12:08.772Z,51.53
2018-09-14T10:14:11.119Z,42.65
2018-09-14T10:16:13.334Z,31.42
2018-09-14T10:18:15.616Z,21.97
2018-09-14T10:20:17.898Z,18.32
2018-09-14T10:22:20.149Z,14.93
2018-09-14T10:24:22.424Z,14.58
2018-09-14T10:26:24.745Z,13.90
2018-09-14T10:28:26.974Z,10.40
2018-09-14T10:30:29.287Z,62.30
2018-09-14T10:32:31.570Z,238.28
2018-09-14T10:34:33.826Z,100.05
2018-09-14T10:36:36.122Z,805.65
2018-09-14T10:38:38.395Z,302.77
2018-09-14T10:40:40.709Z,83.97
2018-09-14T10:42:43.414Z,134.45
2018-09-14T10:44:45.706Z,105.25
2018-09-14T10:46:48.001Z,75.20
2018-09-14T10:48:50.273Z,84.30
2018-09-14T10:50:52.500Z,46.73
2018-09-14T10:52:54.804Z,24.82
2018-09-14T10:54:57.082Z,14.73
2018-09-14T10:56:59.308Z,27.85
2018-09-14T10:59:01.633Z,179.63
2018-09-14T11:01:03.949Z,107.17
2018-09-14T11:03:06.182Z,36.80
2018-09-14T11:05:08.495Z,40.30
2018-09-14T11:07:10.748Z,19.77
2018-09-14T11:09:13.050Z,19.98
2018-09-14T11:11:15.284Z,37.05
2018-09-14T11:13:17.538Z,40.25
2018-09-14T11:15:19.832Z,16.05
2018-09-14T11:17:22.093Z,23.27
2018-09-14T11:19:24.395Z,248.22
2018-09-14T11:21:26.653Z,251.15
2018-09-14T11:23:28.920Z,138.12
2018-09-14T11:25:31.200Z,96.90
2018-09-14T11:27:33.452Z,65.92
2018-09-14T11:29:35.716Z,31.37
2018-09-14T11:31:38.055Z,56.90
2018-09-14T11:33:40.349Z,24.77
2018-09-14T11:35:42.620Z,16.05
2018-09-14T11:37:44.936Z,17.82
2018-09-14T11:39:47.188Z,10.35
2018-09-14T11:41:49.481Z,17.12
2018-09-14T11:43:51.735Z,11.25
2018-09-14T11:45:54.072Z,26.50
2018-09-14T11:47:56.313Z,39.15
2018-09-14T11:49:58.586Z,44.95
2018-09-14T11:52:00.880Z,35.33
2018-09-14T11:54:03.217Z,38.50
2018-09-14T11:56:05.440Z,35.15
2018-09-14T11:58:07.768Z,27.15
2018-09-14T12:00:09.997Z,27.02
2018-09-14T12:02:12.254Z,21.70
2018-09-14T12:04:14.586Z,25.00
2018-09-14T12:06:16.794Z,40.67
2018-09-14T12:08:19.171Z,41.63
2018-09-14T12:10:21.473Z,40.88
2018-09-14T12:12:23.756Z,44.20
2018-09-14T12:14:26.020Z,54.15
2018-09-14T12:16:28.256Z,50.85
2018-09-14T12:18:30.547Z,41.05
2018-09-14T12:20:32.805Z,46.05
2018-09-14T12:22:35.118Z,34.25
2018-09-14T12:24:37.359Z,159.03
2018-09-14T12:26:39.618Z,84.15
2018-09-14T12:28:41.942Z,649.58
2018-09-14T12:30:44.249Z,71.97
2018-09-14T12:32:46.510Z,28.73
2018-09-14T12:34:48.798Z,34.18
2018-09-14T12:36:51.112Z,17.65
2018-09-14T12:38:53.366Z,13.03
2018-09-14T12:40:56.591Z,13.95
2018-09-14T12:42:58.874Z,12.65
2018-09-14T12:45:01.163Z,28.23
2018-09-14T12:47:03.431Z,39.10
2018-09-14T12:49:05.709Z,51.65
2018-09-14T12:51:08.007Z,54.55
2018-09-14T12:53:10.320Z,62.10
2018-09-14T12:55:12.605Z,49.70
2018-09-14T12:57:14.901Z,352.93
2018-09-14T12:59:17.271Z,193.22
2018-09-14T13:01:19.511Z,131.47
2018-09-14T13:03:21.769Z,328.40
2018-09-14T13:05:24.058Z,210.63
2018-09-14T13:07:26.310Z,279.93
2018-09-14T13:09:28.575Z,149.87
2018-09-14T13:11:30.887Z,84.13
2018-09-14T13:13:33.142Z,48.15
2018-09-14T13:15:35.395Z,46.15
2018-09-14T13:17:37.694Z,42.93
2018-09-14T13:19:39.935Z,37.80
2018-09-14T13:21:42.256Z,43.25
2018-09-14T13:23:44.510Z,29.18
2018-09-14T13:25:46.811Z,22.87
2018-09-14T13:27:49.059Z,96.35
2018-09-14T13:29:51.315Z,60.05
2018-09-14T13:31:53.626Z,33.83
2018-09-14T13:33:55.964Z,26.93
2018-09-14T13:35:58.183Z,85.32
2018-09-14T13:38:00.470Z,99.83
2018-09-14T13:40:02.760Z,43.73
2018-09-14T13:42:05.039Z,55.48
2018-09-14T13:44:07.318Z,69.70
2018-09-14T13:46:09.574Z,84.30
2018-09-14T13:48:11.856Z,90.83
2018-09-14T13:50:14.173Z,55.35
2018-09-14T13:52:16.442Z,33.48
2018-09-14T13:54:18.693Z,22.55
2018-09-14T13:56:20.949Z,13.15
2018-09-14T13:58:23.230Z,15.95
2018-09-14T14:00:25.467Z,17.77
2018-09-14T14:02:27.783Z,12.10
2018-09-14T14:04:30.026Z,16.25
2018-09-14T14:06:32.280Z,13.35
2018-09-14T14:08:34.572Z,14.45
2018-09-14T14:10:36.865Z,53.78
2018-09-14T14:12:39.125Z,37.55
2018-09-14T14:14:41.379Z,30.70
2018-09-14T14:16:43.665Z,21.68
2018-09-14T14:18:45.926Z,18.48
2018-09-14T14:20:48.227Z,19.62
2018-09-14T14:22:50.474Z,113.28
2018-09-14T14:24:52.742Z,81.45
2018-09-14T14:26:55.048Z,51.90
2018-09-14T14:28:57.294Z,37.15
2018-09-14T14:30:59.561Z,33.80
2018-09-14T14:33:01.856Z,27.67
2018-09-14T14:35:04.181Z,28.23
2018-09-14T14:37:06.445Z,23.60
2018-09-14T14:39:08.703Z,16.32
2018-09-14T14:41:11.053Z,30.45
2018-09-14T14:43:13.310Z,26.55
2018-09-14T14:45:15.543Z,77.25
2018-09-14T14:47:17.799Z,72.85
2018-09-14T14:49:20.133Z,71.47
2018-09-14T14:51:22.349Z,67.85
2018-09-14T14:53:24.632Z,33.13
2018-09-14T14:55:26.886Z,27.37
2018-09-14T14:57:29.143Z,23.38
2018-09-14T14:59:31.435Z,21.37
2018-09-14T15:01:33.721Z,23.50
2018-09-14T15:03:36.004Z,14.58
2018-09-14T15:05:38.312Z,11.88
2018-09-14T15:07:40.589Z,16.55
2018-09-14T15:09:42.875Z,12.07
2018-09-14T15:11:45.118Z,11.25
2018-09-14T15:13:47.442Z,32.13
2018-09-14T15:15:49.726Z,216.12
2018-09-14T15:17:51.961Z,224.77
2018-09-14T15:19:54.246Z,97.45
2018-09-14T15:21:56.584Z,122.33
2018-09-14T15:23:58.838Z,54.13
2018-09-14T15:26:01.078Z,53.23
2018-09-14T15:28:03.370Z,36.70
2018-09-14T15:30:05.640Z,45.20
2018-09-14T15:32:07.880Z,24.87
2018-09-14T15:34:10.166Z,21.60
2018-09-14T15:36:12.428Z,15.85
2018-09-14T15:38:14.678Z,19.80
2018-09-14T15:40:16.997Z,12.60
2018-09-14T15:42:19.278Z,10.72
2018-09-14T15:44:21.533Z,12.53
2018-09-14T15:46:23.821Z,11.83
2018-09-14T15:48:26.082Z,8.38
2018-09-14T15:50:28.316Z,7.28
2018-09-14T15:52:30.647Z,20.43
2018-09-14T15:54:32.924Z,33.78
2018-09-14T15:56:35.209Z,27.80
2018-09-14T15:58:37.448Z,28.47
2018-09-14T16:00:39.766Z,22.90
2018-09-14T16:02:42.045Z,147.85
2018-09-14T16:04:44.312Z,78.30
2018-09-14T16:06:46.641Z,53.08
2018-09-14T16:08:48.901Z,39.33
2018-09-14T16:10:51.201Z,24.95
2018-09-14T16:12:53.456Z,41.50
2018-09-14T16:14:55.706Z,21.68
2018-09-14T16:16:58.104Z,72.35
2018-09-14T16:19:00.377Z,71.33
2018-09-14T16:21:02.671Z,62.98
2018-09-14T16:23:04.953Z,51.35
2018-09-14T16:25:07.239Z,153.38
2018-09-14T16:27:09.498Z,225.62
2018-09-14T16:29:11.802Z,112.90
2018-09-14T16:31:14.154Z,87.57
2018-09-14T16:33:16.399Z,60.67
2018-09-14T16:35:18.674Z,43.15
2018-09-14T16:37:21.051Z,19.50
2018-09-14T16:39:23.255Z,28.02
2018-09-14T16:41:25.510Z,66.65
2018-09-14T16:43:27.801Z,29.67
2018-09-14T16:45:30.080Z,54.50
2018-09-14T16:47:32.432Z,47.73
2018-09-14T16:49:34.716Z,30.05
2018-09-14T16:51:37.043Z,26.62
2018-09-14T16:53:39.309Z,22.85
2018-09-14T16:55:41.647Z,15.70
2018-09-14T16:57:43.965Z,42.20
2018-09-14T16:59:46.219Z,41.37
2018-09-14T17:01:48.654Z,34.20
2018-09-14T17:03:50.930Z,20.40
2018-09-14T17:05:53.203Z,16.02
2018-09-14T17:07:55.495Z,94.75
2018-09-14T17:09:57.777Z,29.12
2018-09-14T17:12:00.069Z,22.37
2018-09-14T17:14:02.350Z,14.45
2018-09-14T17:16:04.604Z,16.07
2018-09-14T17:18:06.862Z,10.70
2018-09-14T17:20:09.158Z,27.98
2018-09-14T17:22:11.404Z,12.13
2018-09-14T17:24:13.674Z,9.98
2018-09-14T17:26:15.978Z,11.93
2018-09-14T17:28:18.297Z,8.03
2018-09-14T17:30:20.571Z,6.10
2018-09-14T17:32:22.822Z,10.13
2018-09-14T17:34:25.158Z,239.15
2018-09-14T17:36:27.391Z,108.10
2018-09-14T17:38:29.660Z,83.25
2018-09-14T17:40:31.956Z,40.38
2018-09-14T17:42:34.250Z,41.20
2018-09-14T17:44:36.622Z,18.30
2018-09-14T17:46:38.815Z,11.40
2018-09-14T17:48:41.111Z,195.77
2018-09-14T17:50:43.364Z,27.35
2018-09-14T17:52:45.661Z,17.77
2018-09-14T17:54:47.905Z,14.75
2018-09-14T17:56:50.220Z,11.03
2018-09-14T17:58:52.453Z,146.82
2018-09-14T18:00:54.748Z,88.87
2018-09-14T18:02:57.001Z,69.53
2018-09-14T18:04:59.255Z,102.70
2018-09-14T18:07:01.564Z,117.15
2018-09-14T18:09:03.847Z,109.22
2018-09-14T18:11:06.159Z,112.72
2018-09-14T18:13:08.475Z,159.55
2018-09-14T18:15:10.730Z,175.90
2018-09-14T18:17:13.012Z,207.37
2018-09-14T18:19:15.274Z,381.77
2018-09-14T18:21:17.579Z,282.12
2018-09-14T18:23:19.874Z,371.20
2018-09-14T18:25:22.134Z,337.52
2018-09-14T18:27:24.466Z,310.23
2018-09-14T18:29:26.792Z,358.23
2018-09-14T18:31:29.072Z,341.80
2018-09-14T18:33:31.364Z,368.45
2018-09-14T18:35:33.677Z,762.85
2018-09-14T18:37:35.948Z,404.02
2018-09-14T18:39:38.213Z,455.52
2018-09-14T18:41:40.526Z,410.00
2018-09-14T18:43:42.796Z,472.30
2018-09-14T18:45:45.127Z,492.10
2018-09-14T18:47:47.423Z,532.40
2018-09-14T18:49:52.050Z,495.85
2018-09-14T18:51:54.344Z,461.25
2018-09-14T18:53:57.207Z,444.35
2018-09-14T19:19:32.949Z,597.80
2018-09-14T19:21:35.205Z,578.08
2018-09-14T19:23:37.518Z,632.73
2018-09-14T19:25:39.796Z,662.30
2018-09-14T19:27:42.049Z,682.38
2018-09-14T19:29:44.348Z,773.25
2018-09-14T19:31:46.654Z,747.85
2018-09-14T19:33:48.974Z,799.88
2018-09-14T19:35:51.251Z,527.08
2018-09-14T19:37:53.480Z,390.73
2018-09-14T19:39:55.783Z,529.35
2018-09-14T19:41:58.080Z,666.30
2018-09-14T19:44:00.335Z,775.10
2018-09-14T19:46:02.726Z,751.87
2018-09-14T19:48:04.982Z,725.22
2018-09-14T19:50:07.257Z,696.98
2018-09-14T19:52:09.537Z,1033.93
2018-09-14T19:54:11.888Z,950.65
2018-09-14T19:56:14.130Z,810.73
2018-09-14T19:58:16.380Z,782.85
2018-09-14T20:00:18.680Z,793.35
2018-09-14T20:02:20.955Z,828.30
2018-09-14T20:04:23.202Z,848.93
2018-09-14T20:06:25.610Z,859.07
2018-09-14T20:08:27.887Z,915.17
2018-09-14T20:10:30.156Z,975.90
2018-09-14T20:12:32.463Z,949.42
2018-09-14T20:14:34.743Z,941.08
2018-09-14T20:16:37.003Z,895.10
2018-09-14T20:18:39.399Z,702.05
2018-09-14T20:20:41.622Z,507.45
2018-09-14T20:22:43.927Z,297.40
2018-09-14T20:24:46.204Z,306.57
2018-09-14T20:26:48.521Z,638.77
2018-09-14T20:28:50.789Z,683.85
2018-09-14T20:30:53.087Z,717.83
2018-09-14T20:32:55.356Z,667.05
2018-09-14T20:34:57.661Z,702.58
2018-09-14T20:36:59.958Z,678.33
2018-09-14T20:39:02.220Z,791.60
2018-09-14T20:41:04.542Z,896.78
2018-09-14T20:43:06.832Z,723.78
2018-09-14T20:45:09.088Z,749.00
2018-09-14T20:47:11.358Z,788.37
2018-09-14T20:49:13.664Z,769.05
2018-09-14T20:51:15.940Z,749.80
2018-09-14T20:53:18.212Z,781.17
2018-09-14T20:55:20.477Z,843.90
2018-09-14T20:57:22.782Z,753.67
2018-09-14T20:59:25.040Z,759.73
2018-09-14T21:01:27.328Z,782.02
2018-09-14T21:03:29.616Z,799.55
2018-09-14T21:05:31.864Z,787.08
2018-09-14T21:07:34.272Z,775.45
2018-09-14T21:09:36.559Z,740.50
2018-09-14T21:11:38.858Z,928.63
2018-09-14T21:13:41.170Z,821.72
2018-09-14T21:15:43.459Z,1080.23
2018-09-14T21:17:45.778Z,818.10
2018-09-14T21:19:48.042Z,871.78
2018-09-14T21:21:50.316Z,863.85
2018-09-14T21:23:52.631Z,884.75
2018-09-14T21:25:54.925Z,1671.53
2018-09-14T21:27:57.173Z,822.30
2018-09-14T21:29:59.438Z,802.60
2018-09-14T21:32:01.735Z,819.17
2018-09-14T21:34:04.041Z,801.70
2018-09-14T21:36:06.294Z,829.55
2018-09-14T21:38:08.547Z,805.42
2018-09-14T21:40:10.852Z,808.92
2018-09-14T21:42:13.182Z,824.45
2018-09-14T21:44:15.439Z,832.08
2018-09-14T21:46:17.752Z,823.23
2018-09-14T21:48:20.061Z,849.02
2018-09-14T21:50:22.355Z,901.62
2018-09-14T21:52:24.596Z,928.70
2018-09-14T21:54:26.876Z,946.12
2018-09-14T21:56:29.194Z,922.42
2018-09-14T21:58:31.471Z,922.25
2018-09-14T22:00:33.754Z,956.35
2018-09-14T22:02:36.065Z,1017.00
2018-09-14T22:04:38.368Z,1093.25
2018-09-14T22:06:40.640Z,668.08
2018-09-14T22:08:42.951Z,332.10
2018-09-14T22:10:45.211Z,277.70
2018-09-14T22:12:47.516Z,214.57
2018-09-14T22:14:49.811Z,350.65
2018-09-14T22:16:52.067Z,773.67
2018-09-14T22:18:54.383Z,773.25
2018-09-14T22:20:56.701Z,807.42
2018-09-14T22:22:58.960Z,952.70
2018-09-14T22:25:01.430Z,810.82
2018-09-14T22:27:03.686Z,831.15
2018-09-14T22:29:05.949Z,787.88
2018-09-14T22:31:08.256Z,687.23
2018-09-14T22:33:10.529Z,677.37
2018-09-14T22:35:12.796Z,697.85
2018-09-14T22:37:15.077Z,862.70
2018-09-14T22:39:17.355Z,878.48
2018-09-14T22:41:19.659Z,881.60
2018-09-14T22:43:21.915Z,916.50
2018-09-14T22:45:24.216Z,882.13
2018-09-14T22:47:26.474Z,928.35
2018-09-14T22:49:28.762Z,867.17
2018-09-14T22:51:31.036Z,863.15
2018-09-14T22:53:33.289Z,853.73
2018-09-14T22:55:35.595Z,946.27
2018-09-14T22:57:37.889Z,948.95
2018-09-14T22:59:40.144Z,933.60
2018-09-14T23:01:42.437Z,928.33
2018-09-14T23:03:44.699Z,855.70
2018-09-14T23:05:46.992Z,853.55
2018-09-14T23:07:49.269Z,910.97
2018-09-14T23:09:51.520Z,938.40
2018-09-14T23:11:53.816Z,903.22
2018-09-14T23:13:56.123Z,944.35
2018-09-14T23:15:58.375Z,914.25
2018-09-14T23:18:00.677Z,918.62
2018-09-14T23:20:02.968Z,872.78
2018-09-14T23:22:05.266Z,868.58
2018-09-14T23:24:07.551Z,870.97
2018-09-14T23:26:09.824Z,913.63
2018-09-14T23:28:12.080Z,864.00
2018-09-14T23:30:14.381Z,877.95
2018-09-14T23:32:16.639Z,885.80
2018-09-14T23:34:18.900Z,864.48
2018-09-14T23:36:21.194Z,889.32
2018-09-14T23:38:23.453Z,867.37
2018-09-14T23:40:25.761Z,861.63
2018-09-14T23:42:27.998Z,871.85
2018-09-14T23:44:30.297Z,867.37
2018-09-14T23:46:32.595Z,850.53
2018-09-14T23:48:34.863Z,849.85
2018-09-14T23:50:37.111Z,859.25
2018-09-14T23:52:39.413Z,867.60
2018-09-14T23:54:41.665Z,857.62
2018-09-14T23:56:43.941Z,836.92
2018-09-14T23:58:46.239Z,834.62
